Annandale On Hudson, NY

9:53 AM EST on December 22, 2014 (GMT -0500)
Red Hook | Change Station
CLOSE
Current Station
Personal Weather Station
Location: Red Hook, NY
Elevation: 256 ft
Nearby Weather Stations

Elev 256 ft 42.01 °N, 73.85 °W | Updated 51 seconds ago

Overcast
Overcast
30.5 °F
Feels Like 30 °F
N
3.0
Wind Variable Wind from NE
Gusts 3.0 mph

Today
High -- | Low -- °F
--% Chance of Precip.
Yesterday
High -- | Low -- °F
Precip. -- in
7:20 AM 4:27 PM
New Moon, 0% visible
Pressure 30.34 in
Visibility 1.8 miles
Clouds Scattered Clouds 800 ft
Overcast 1200 ft
Windchill 30 °F
Dew Point 24 °F
Humidity 76%
Rainfall 0.00 in
Snow Depth Not available.
UV 0 out of 12
Pollen .10 out of 12
Air Quality Not available.
Flu Activity Not available.
SPECI KPOU 221402Z 00000KT 1 3/4SM -SN SCT008 OVC012 01/M02 A3034 RMK AO2 P0000 T00061022

More Conditions Fewer Conditions

Pressure 30.34 in
Visibility 1.8 miles
Clouds Scattered Clouds 800 ft
Overcast 1200 ft
Windchill 30 °F
Dew Point 24 °F
Humidity 76%
Rainfall 0.00 in
Snow Depth Not available.
UV 0 out of 12
Pollen .10 out of 12
Air Quality Not available.
Flu Activity Not available.
SPECI KPOU 221402Z 00000KT 1 3/4SM -SN SCT008 OVC012 01/M02 A3034 RMK AO2 P0000 T00061022

More Conditions Fewer Conditions

10-Day Weather Forecast

Almanac

Astronomy

Dec. 22, 2014 Rise Set
Actual Time
Civil Twilight
Nautical Twilight
Astronomical Twilight
Moon
Length of Visible Light
Length of Day
Tomorrow will be .
, % of the Moon is Illuminated

Today's Extremes

State Highs State Lows

Community

WunderPhotos

Upload Photos

1,779,608 photos uploaded!

WunderBlogs® & News

Nearby

Air Quality

  Air Quality AQ Index Pollutant
Not available.

Snow Depth

Station Depth Elevation

Earthquake Activity

City Distance Mag. Time & Date
Minimum magnitude displayed is 2.5.

Coastal Water Temperatures

Place Temperature

Nearby Weather Stations